• Join FlightAware (Why Join?)
  • Login
  • US Flag 
01:53AM EDT


 

Airport Tracker/Info


-or-


 

Live Flight TrackerFlight Track Log ✈ WBR2634 ✈ 18-Jul-2013 ✈ KBRL - KORD

Flight Track Log - Related Links

Times and Time Zones

All times are in EDT time to prevent confusion due to time zone crossing. See the WBR2634 flight status page for this flight to view local times or setup timezone preferences in your user account.

Time Position Orientation Groundspeed Altitude Reporting Facility
EDT Latitude Longitude Course Direction KTS MPH feet Rate Location/Type
05:46PM 40.7689 -91.0797 73° East 115 132 2,300  Level Chicago Center
05:47PM 40.7858 -91.0403 60° Northeast 123 142 3,200 780 Climbing Chicago Center
05:48PM 40.8574 -90.7852 57° Northeast  Level FlightAware Approximate
05:48PM 40.8022 -90.9967 64° Northeast 128 147 4,000  Level Chicago Center
05:49PM 40.8714 -90.7310 72° East  Level FlightAware Approximate
05:49PM 40.8239 -90.9431 62° Northeast 135 155 4,900  Level Chicago Center
05:50PM 40.8853 -90.6750 73° East  Level FlightAware Approximate
05:50PM 40.8408 -90.8981 64° Northeast 138 159 5,600  Level Chicago Center
05:51PM 40.8984 -90.6187 73° East  Level FlightAware Approximate
05:51PM 40.8522 -90.8475 73° East 142 163 6,400  Level Chicago Center
05:52PM 40.8644 -90.7989 72° East 141 162 7,100 660 Climbing Chicago Center
05:53PM 40.8781 -90.7478 71° East 144 166 7,800 660 Climbing Chicago Center
05:54PM 40.8911 -90.6969 71° East 148 170 8,500 540 Climbing Chicago Center
05:55PM 40.9067 -90.6333 72° East 150 173 9,000 240 Climbing Chicago Center
05:56PM 40.9211 -90.5761 72° East 163 188 9,100  Climbing Chicago Center
05:57PM 40.9353 -90.5167 72° East 169 194 9,100 -60 Level Chicago Center
05:58PM 40.9486 -90.4556 74° East 172 198 9,000  Descending Chicago Center
05:59PM 40.9647 -90.3978 70° East 169 194 9,100  Climbing Chicago Center
06:01PM 40.9908 -90.3436 57° Northeast 173 199 9,000 -60 Descending Chicago Center
06:02PM 41.0169 -90.2761 63° Northeast 172 198 9,000  Level Chicago Center
06:03PM 41.0353 -90.2186 67° East 171 197 9,000  Level Chicago Center
06:04PM 41.0556 -90.1622 64° Northeast 169 194 9,000 -120 Level Chicago Center
06:05PM 41.0758 -90.1056 65° Northeast 170 196 8,800 -360 Descending Chicago Center
06:06PM 41.0992 -90.0431 64° Northeast 184 212 8,300 -420 Descending Chicago Center
06:07PM 41.1231 -89.9803 63° Northeast 189 217 8,000 -180 Descending Chicago Center
06:08PM 41.1447 -89.9219 64° Northeast 181 208 8,000  Level Chicago Center
06:09PM 41.1692 -89.8536 65° Northeast 173 199 8,000  Level Chicago Center
06:10PM 41.1908 -89.7967 63° Northeast 173 199 8,000  Level Chicago Center
06:11PM 41.2100 -89.7403 66° East 170 196 8,100  Climbing Chicago Center
06:12PM 41.2300 -89.6833 65° Northeast 169 194 8,000 -60 Descending Chicago Center
06:13PM 41.2519 -89.6269 63° Northeast 171 197 8,000  Level Chicago Center
06:14PM 41.2725 -89.5719 64° Northeast 167 192 8,000  Level Chicago Center
06:15PM 41.2953 -89.5031 66° East 168 193 8,000  Level Chicago Center
06:16PM 41.3167 -89.4461 63° Northeast 171 197 8,000  Level Chicago Center
06:17PM 41.3372 -89.3919 63° Northeast 166 191 8,000  Level Chicago Center
06:18PM 41.3567 -89.3353 65° Northeast 167 192 8,000  Level Chicago Center
06:19PM 41.3772 -89.2781 64° Northeast 170 196 8,100  Climbing Chicago Center
06:20PM 41.3981 -89.2206 64° Northeast 171 197 8,000 -60 Descending Chicago Center
06:21PM 41.4206 -89.1594 64° Northeast 167 192 8,000  Level Chicago Center
06:22PM 41.4392 -89.1011 67° East 170 196 8,000  Level Chicago Center
06:23PM 41.4606 -89.0469 62° Northeast 168 193 8,000  Level Chicago Center
06:24PM 41.4861 -88.9792 63° Northeast 171 197 8,100  Climbing Chicago Center
06:25PM 41.5050 -88.9228 66° East 170 196 8,000 -60 Descending Chicago Center
06:26PM 41.5250 -88.8656 65° Northeast 170 196 8,000  Level Chicago Center
06:28PM 41.5650 -88.7508 65° Northeast 172 198 8,000  Level Chicago Center
06:29PM 41.5886 -88.6817 65° Northeast 173 199 8,000  Level Chicago Center
06:31PM 41.6108 -88.6264 62° Northeast 171 197 8,000  Level Chicago Center
06:32PM 41.6372 -88.5722 57° Northeast 174 200 8,100  Climbing Chicago Center
06:33PM 41.6636 -88.5192 56° Northeast 173 199 8,100  Level Chicago Center
06:34PM 41.6881 -88.4661 58° Northeast 169 194 8,100 -60 Level Chicago Center
06:35PM 41.7281 -88.4111 46° Northeast 172 198 8,000 -60 Descending Chicago Center
06:36PM 41.7533 -88.3594 57° Northeast 169 194 8,000 -300 Level Chicago Center
06:37PM 41.7722 -88.2997 67° East 177 204 7,500 -480 Descending Chicago Center
06:38PM 41.7950 -88.2367 64° Northeast 188 216 7,100 -300 Descending Chicago Center
06:39PM 41.8197 -88.1772 61° Northeast 186 214 7,000 -60 Descending Chicago Center
06:40PM 41.8389 -88.1181 66° East 178 205 7,000  Level Chicago Center
06:41PM 41.8636 -88.0506 64° Northeast 170 196 7,000  Level Chicago Center
06:42PM 41.8833 -88.0000 62° Northeast 172 198 7,000  Level Chicago TRACON
06:43PM 41.8833 -87.9333 90° East 175 201 7,100  Climbing Chicago TRACON
06:44PM 41.8881 -87.8639 85° East 173 199 7,000 -360 Descending Chicago Center
06:45PM 41.8875 -87.7994 91° East 173 199 6,300 -1,020 Descending Chicago Center
06:46PM 41.8889 -87.7158 89° East 183 211 5,000 -1,140 Descending Chicago Center
06:47PM 41.9331 -87.7100 North 185 213 4,000 -1,020 Descending Chicago Center
06:48PM 41.9589 -87.7564 307° West 169 194 2,900 -1,020 Descending Chicago Center
06:49PM 41.9697 -87.8103 285° West 159 183 1,900 -900 Descending Chicago Center
06:50PM 41.9681 -87.8633 268° West 149 171 1,100 -780 Descending Chicago Center
06:52PM 41.9667 -87.9000 314° West  Level FlightAware Approximate